sensor_id;sensor_type;location;lat;lon;timestamp;P1;durP1;ratioP1;P2;durP2;ratioP2
23565;SDS011;22140;48.988;8.544;2023-11-21T00:01:35;6.45;;;0.80;;
23565;SDS011;22140;48.988;8.544;2023-11-21T00:06:37;5.87;;;0.90;;
23565;SDS011;22140;48.988;8.544;2023-11-21T00:11:38;6.40;;;0.98;;
23565;SDS011;22140;48.988;8.544;2023-11-21T00:16:40;4.57;;;0.67;;
23565;SDS011;22140;48.988;8.544;2023-11-21T00:21:41;5.00;;;0.70;;
23565;SDS011;22140;48.988;8.544;2023-11-21T00:26:45;4.35;;;0.90;;
23565;SDS011;22140;48.988;8.544;2023-11-21T00:31:47;3.93;;;0.80;;
23565;SDS011;22140;48.988;8.544;2023-11-21T00:36:48;6.05;;;0.82;;
23565;SDS011;22140;48.988;8.544;2023-11-21T00:41:50;5.13;;;0.70;;
23565;SDS011;22140;48.988;8.544;2023-11-21T00:46:52;4.63;;;0.70;;
23565;SDS011;22140;48.988;8.544;2023-11-21T00:51:53;3.83;;;0.75;;
23565;SDS011;22140;48.988;8.544;2023-11-21T00:56:55;6.07;;;0.70;;
23565;SDS011;22140;48.988;8.544;2023-11-21T01:01:56;4.55;;;0.80;;
23565;SDS011;22140;48.988;8.544;2023-11-21T01:06:57;5.50;;;1.00;;
23565;SDS011;22140;48.988;8.544;2023-11-21T01:11:59;5.25;;;0.80;;
23565;SDS011;22140;48.988;8.544;2023-11-21T01:17:01;4.85;;;0.82;;
23565;SDS011;22140;48.988;8.544;2023-11-21T01:22:03;5.40;;;0.80;;
23565;SDS011;22140;48.988;8.544;2023-11-21T01:27:05;4.13;;;0.70;;
23565;SDS011;22140;48.988;8.544;2023-11-21T01:32:06;5.80;;;0.87;;
23565;SDS011;22140;48.988;8.544;2023-11-21T01:37:09;4.60;;;0.80;;
23565;SDS011;22140;48.988;8.544;2023-11-21T01:42:13;3.60;;;0.60;;
23565;SDS011;22140;48.988;8.544;2023-11-21T01:47:14;4.00;;;0.70;;
23565;SDS011;22140;48.988;8.544;2023-11-21T01:52:16;4.10;;;1.00;;
23565;SDS011;22140;48.988;8.544;2023-11-21T01:57:19;7.50;;;0.90;;
23565;SDS011;22140;48.988;8.544;2023-11-21T02:02:21;4.18;;;0.75;;
23565;SDS011;22140;48.988;8.544;2023-11-21T02:07:23;6.22;;;0.60;;
23565;SDS011;22140;48.988;8.544;2023-11-21T02:12:24;3.47;;;0.77;;
23565;SDS011;22140;48.988;8.544;2023-11-21T02:17:27;4.03;;;0.68;;
23565;SDS011;22140;48.988;8.544;2023-11-21T02:22:30;3.37;;;0.80;;
23565;SDS011;22140;48.988;8.544;2023-11-21T02:27:32;4.45;;;0.80;;
23565;SDS011;22140;48.988;8.544;2023-11-21T02:32:33;5.88;;;1.00;;
23565;SDS011;22140;48.988;8.544;2023-11-21T02:37:49;4.77;;;0.87;;
23565;SDS011;22140;48.988;8.544;2023-11-21T02:42:51;3.00;;;0.70;;
23565;SDS011;22140;48.988;8.544;2023-11-21T02:47:52;2.27;;;0.60;;
23565;SDS011;22140;48.988;8.544;2023-11-21T02:52:59;3.95;;;0.70;;
23565;SDS011;22140;48.988;8.544;2023-11-21T02:58:02;6.45;;;0.90;;
23565;SDS011;22140;48.988;8.544;2023-11-21T03:03:04;3.07;;;0.70;;
23565;SDS011;22140;48.988;8.544;2023-11-21T03:08:06;4.30;;;0.90;;
23565;SDS011;22140;48.988;8.544;2023-11-21T03:13:07;5.03;;;0.90;;
23565;SDS011;22140;48.988;8.544;2023-11-21T03:18:09;3.97;;;0.90;;
23565;SDS011;22140;48.988;8.544;2023-11-21T03:23:10;6.60;;;1.00;;
23565;SDS011;22140;48.988;8.544;2023-11-21T03:28:12;5.50;;;1.10;;
23565;SDS011;22140;48.988;8.544;2023-11-21T03:33:14;6.43;;;1.15;;
23565;SDS011;22140;48.988;8.544;2023-11-21T03:38:15;5.57;;;0.90;;
23565;SDS011;22140;48.988;8.544;2023-11-21T03:43:17;4.30;;;0.98;;
23565;SDS011;22140;48.988;8.544;2023-11-21T03:48:18;4.57;;;0.90;;
23565;SDS011;22140;48.988;8.544;2023-11-21T03:53:20;4.37;;;0.80;;
23565;SDS011;22140;48.988;8.544;2023-11-21T03:58:21;4.38;;;0.80;;
23565;SDS011;22140;48.988;8.544;2023-11-21T04:03:22;5.03;;;0.90;;
23565;SDS011;22140;48.988;8.544;2023-11-21T04:08:24;4.63;;;0.98;;
23565;SDS011;22140;48.988;8.544;2023-11-21T04:13:26;3.35;;;0.77;;
23565;SDS011;22140;48.988;8.544;2023-11-21T04:18:27;4.80;;;0.77;;
23565;SDS011;22140;48.988;8.544;2023-11-21T04:23:29;6.60;;;0.90;;
23565;SDS011;22140;48.988;8.544;2023-11-21T04:28:31;5.17;;;0.90;;
23565;SDS011;22140;48.988;8.544;2023-11-21T04:33:33;5.25;;;1.08;;
23565;SDS011;22140;48.988;8.544;2023-11-21T04:38:34;4.63;;;1.00;;
23565;SDS011;22140;48.988;8.544;2023-11-21T04:43:35;5.07;;;1.00;;
23565;SDS011;22140;48.988;8.544;2023-11-21T04:48:37;5.60;;;1.17;;
23565;SDS011;22140;48.988;8.544;2023-11-21T04:53:38;6.23;;;1.10;;
23565;SDS011;22140;48.988;8.544;2023-11-21T04:58:40;5.07;;;1.05;;
23565;SDS011;22140;48.988;8.544;2023-11-21T05:03:42;6.55;;;1.60;;
23565;SDS011;22140;48.988;8.544;2023-11-21T05:08:43;5.53;;;1.20;;
23565;SDS011;22140;48.988;8.544;2023-11-21T05:13:45;22.98;;;16.70;;
23565;SDS011;22140;48.988;8.544;2023-11-21T05:18:46;6.00;;;1.80;;
23565;SDS011;22140;48.988;8.544;2023-11-21T05:23:47;5.75;;;1.40;;
23565;SDS011;22140;48.988;8.544;2023-11-21T05:28:49;5.25;;;1.30;;
23565;SDS011;22140;48.988;8.544;2023-11-21T05:33:51;4.87;;;1.03;;
23565;SDS011;22140;48.988;8.544;2023-11-21T05:38:52;6.38;;;1.88;;
23565;SDS011;22140;48.988;8.544;2023-11-21T05:43:54;7.20;;;1.70;;
23565;SDS011;22140;48.988;8.544;2023-11-21T05:48:55;5.20;;;1.40;;
23565;SDS011;22140;48.988;8.544;2023-11-21T05:53:56;5.20;;;1.33;;
23565;SDS011;22140;48.988;8.544;2023-11-21T05:58:58;8.53;;;1.40;;
23565;SDS011;22140;48.988;8.544;2023-11-21T06:03:59;6.10;;;1.40;;
23565;SDS011;22140;48.988;8.544;2023-11-21T06:09:01;5.30;;;1.40;;
23565;SDS011;22140;48.988;8.544;2023-11-21T06:14:03;5.53;;;1.40;;
23565;SDS011;22140;48.988;8.544;2023-11-21T06:19:04;6.30;;;1.42;;
23565;SDS011;22140;48.988;8.544;2023-11-21T06:24:06;5.30;;;1.50;;
23565;SDS011;22140;48.988;8.544;2023-11-21T06:29:08;5.40;;;1.50;;
23565;SDS011;22140;48.988;8.544;2023-11-21T06:34:09;4.50;;;1.30;;
23565;SDS011;22140;48.988;8.544;2023-11-21T06:39:11;5.22;;;1.25;;
23565;SDS011;22140;48.988;8.544;2023-11-21T06:44:12;5.22;;;1.23;;
23565;SDS011;22140;48.988;8.544;2023-11-21T06:49:14;5.70;;;1.57;;
23565;SDS011;22140;48.988;8.544;2023-11-21T06:54:16;4.90;;;1.30;;
23565;SDS011;22140;48.988;8.544;2023-11-21T06:59:17;7.90;;;2.23;;
23565;SDS011;22140;48.988;8.544;2023-11-21T07:04:18;6.60;;;1.70;;
23565;SDS011;22140;48.988;8.544;2023-11-21T07:09:20;5.65;;;1.40;;
23565;SDS011;22140;48.988;8.544;2023-11-21T07:14:23;5.50;;;1.60;;
23565;SDS011;22140;48.988;8.544;2023-11-21T07:19:24;7.47;;;2.65;;
23565;SDS011;22140;48.988;8.544;2023-11-21T07:24:26;5.70;;;1.70;;
23565;SDS011;22140;48.988;8.544;2023-11-21T07:29:27;6.63;;;1.77;;
23565;SDS011;22140;48.988;8.544;2023-11-21T07:34:31;7.35;;;2.22;;
23565;SDS011;22140;48.988;8.544;2023-11-21T07:39:32;6.90;;;1.87;;
23565;SDS011;22140;48.988;8.544;2023-11-21T07:44:34;7.22;;;2.20;;
23565;SDS011;22140;48.988;8.544;2023-11-21T07:49:35;8.03;;;2.57;;
23565;SDS011;22140;48.988;8.544;2023-11-21T07:54:36;6.28;;;2.17;;
23565;SDS011;22140;48.988;8.544;2023-11-21T07:59:39;6.72;;;2.28;;
23565;SDS011;22140;48.988;8.544;2023-11-21T08:04:41;7.40;;;2.43;;
23565;SDS011;22140;48.988;8.544;2023-11-21T08:09:43;7.85;;;3.05;;
23565;SDS011;22140;48.988;8.544;2023-11-21T08:14:45;7.10;;;2.67;;
23565;SDS011;22140;48.988;8.544;2023-11-21T08:19:47;6.53;;;2.20;;
23565;SDS011;22140;48.988;8.544;2023-11-21T08:24:50;6.53;;;2.50;;
23565;SDS011;22140;48.988;8.544;2023-11-21T08:29:52;8.83;;;2.30;;
23565;SDS011;22140;48.988;8.544;2023-11-21T08:34:53;6.22;;;1.80;;
23565;SDS011;22140;48.988;8.544;2023-11-21T08:39:57;6.60;;;1.90;;
23565;SDS011;22140;48.988;8.544;2023-11-21T08:44:58;8.02;;;1.95;;
23565;SDS011;22140;48.988;8.544;2023-11-21T08:50:00;6.10;;;1.75;;
23565;SDS011;22140;48.988;8.544;2023-11-21T08:55:02;5.93;;;2.00;;
23565;SDS011;22140;48.988;8.544;2023-11-21T09:00:09;7.43;;;2.28;;
23565;SDS011;22140;48.988;8.544;2023-11-21T09:05:13;8.60;;;3.20;;
23565;SDS011;22140;48.988;8.544;2023-11-21T09:10:18;8.18;;;3.20;;
23565;SDS011;22140;48.988;8.544;2023-11-21T09:15:19;8.70;;;3.42;;
23565;SDS011;22140;48.988;8.544;2023-11-21T09:20:21;10.63;;;3.63;;
23565;SDS011;22140;48.988;8.544;2023-11-21T09:25:24;12.50;;;4.28;;
23565;SDS011;22140;48.988;8.544;2023-11-21T09:30:25;10.23;;;4.67;;
23565;SDS011;22140;48.988;8.544;2023-11-21T09:35:26;12.65;;;5.50;;
23565;SDS011;22140;48.988;8.544;2023-11-21T09:40:29;13.13;;;6.50;;
23565;SDS011;22140;48.988;8.544;2023-11-21T09:45:34;12.77;;;6.27;;
23565;SDS011;22140;48.988;8.544;2023-11-21T09:50:36;14.32;;;7.25;;
23565;SDS011;22140;48.988;8.544;2023-11-21T09:55:38;15.10;;;6.73;;
23565;SDS011;22140;48.988;8.544;2023-11-21T10:00:42;21.88;;;8.85;;
23565;SDS011;22140;48.988;8.544;2023-11-21T10:05:44;18.17;;;8.18;;
23565;SDS011;22140;48.988;8.544;2023-11-21T10:10:49;16.20;;;7.60;;
23565;SDS011;22140;48.988;8.544;2023-11-21T10:15:51;14.98;;;7.00;;
23565;SDS011;22140;48.988;8.544;2023-11-21T10:20:53;18.33;;;8.07;;
23565;SDS011;22140;48.988;8.544;2023-11-21T10:25:55;24.23;;;8.07;;
23565;SDS011;22140;48.988;8.544;2023-11-21T10:31:06;55.20;;;10.88;;
23565;SDS011;22140;48.988;8.544;2023-11-21T10:36:08;42.90;;;11.07;;
23565;SDS011;22140;48.988;8.544;2023-11-21T10:41:11;50.90;;;11.90;;
23565;SDS011;22140;48.988;8.544;2023-11-21T10:46:13;78.40;;;13.23;;
23565;SDS011;22140;48.988;8.544;2023-11-21T10:51:15;21.27;;;7.70;;
23565;SDS011;22140;48.988;8.544;2023-11-21T10:56:17;16.08;;;7.03;;
23565;SDS011;22140;48.988;8.544;2023-11-21T11:01:20;19.47;;;7.53;;
23565;SDS011;22140;48.988;8.544;2023-11-21T11:06:22;14.85;;;6.63;;
23565;SDS011;22140;48.988;8.544;2023-11-21T11:11:27;12.77;;;6.10;;
23565;SDS011;22140;48.988;8.544;2023-11-21T11:16:29;12.07;;;5.70;;
23565;SDS011;22140;48.988;8.544;2023-11-21T11:26:46;11.97;;;5.10;;
23565;SDS011;22140;48.988;8.544;2023-11-21T11:42:01;20.98;;;9.13;;
23565;SDS011;22140;48.988;8.544;2023-11-21T11:47:02;11.13;;;5.20;;
23565;SDS011;22140;48.988;8.544;2023-11-21T11:57:29;14.65;;;5.60;;
23565;SDS011;22140;48.988;8.544;2023-11-21T12:02:31;9.47;;;4.07;;
23565;SDS011;22140;48.988;8.544;2023-11-21T12:07:41;8.88;;;3.95;;
23565;SDS011;22140;48.988;8.544;2023-11-21T12:12:49;9.52;;;4.13;;
23565;SDS011;22140;48.988;8.544;2023-11-21T12:17:51;7.97;;;3.40;;
23565;SDS011;22140;48.988;8.544;2023-11-21T12:22:54;9.10;;;3.30;;
23565;SDS011;22140;48.988;8.544;2023-11-21T12:27:56;5.33;;;2.00;;
23565;SDS011;22140;48.988;8.544;2023-11-21T12:32:58;7.25;;;2.30;;
23565;SDS011;22140;48.988;8.544;2023-11-21T12:38:01;6.38;;;2.10;;
23565;SDS011;22140;48.988;8.544;2023-11-21T12:43:10;6.70;;;2.20;;
23565;SDS011;22140;48.988;8.544;2023-11-21T12:48:12;6.78;;;2.45;;
23565;SDS011;22140;48.988;8.544;2023-11-21T12:53:13;6.40;;;2.67;;
23565;SDS011;22140;48.988;8.544;2023-11-21T12:58:17;7.63;;;2.92;;
23565;SDS011;22140;48.988;8.544;2023-11-21T13:03:21;8.23;;;3.35;;
23565;SDS011;22140;48.988;8.544;2023-11-21T13:08:27;7.27;;;2.97;;
23565;SDS011;22140;48.988;8.544;2023-11-21T13:13:31;7.47;;;3.30;;
23565;SDS011;22140;48.988;8.544;2023-11-21T13:18:33;8.87;;;3.90;;
23565;SDS011;22140;48.988;8.544;2023-11-21T13:23:34;9.60;;;4.15;;
23565;SDS011;22140;48.988;8.544;2023-11-21T13:28:37;9.73;;;4.43;;
23565;SDS011;22140;48.988;8.544;2023-11-21T13:33:39;11.03;;;4.73;;
23565;SDS011;22140;48.988;8.544;2023-11-21T13:38:44;11.35;;;4.55;;
23565;SDS011;22140;48.988;8.544;2023-11-21T13:43:47;11.30;;;4.27;;
23565;SDS011;22140;48.988;8.544;2023-11-21T13:49:00;11.73;;;4.00;;
23565;SDS011;22140;48.988;8.544;2023-11-21T13:54:01;9.50;;;3.83;;
23565;SDS011;22140;48.988;8.544;2023-11-21T13:59:03;10.83;;;4.10;;
23565;SDS011;22140;48.988;8.544;2023-11-21T14:04:16;11.95;;;4.28;;
23565;SDS011;22140;48.988;8.544;2023-11-21T14:09:19;7.80;;;3.17;;
23565;SDS011;22140;48.988;8.544;2023-11-21T14:14:25;8.30;;;3.00;;
23565;SDS011;22140;48.988;8.544;2023-11-21T14:19:27;8.05;;;2.92;;
23565;SDS011;22140;48.988;8.544;2023-11-21T14:24:32;10.40;;;3.53;;
23565;SDS011;22140;48.988;8.544;2023-11-21T14:29:34;10.77;;;4.65;;
23565;SDS011;22140;48.988;8.544;2023-11-21T14:34:39;6.30;;;2.10;;
23565;SDS011;22140;48.988;8.544;2023-11-21T14:39:42;7.13;;;2.80;;
23565;SDS011;22140;48.988;8.544;2023-11-21T14:44:47;9.27;;;3.75;;
23565;SDS011;22140;48.988;8.544;2023-11-21T14:49:48;8.70;;;3.43;;
23565;SDS011;22140;48.988;8.544;2023-11-21T14:54:54;7.20;;;2.78;;
23565;SDS011;22140;48.988;8.544;2023-11-21T15:00:19;11.00;;;3.10;;
23565;SDS011;22140;48.988;8.544;2023-11-21T15:05:36;10.10;;;3.97;;
23565;SDS011;22140;48.988;8.544;2023-11-21T15:10:39;10.55;;;5.15;;
23565;SDS011;22140;48.988;8.544;2023-11-21T15:15:48;10.07;;;4.47;;
23565;SDS011;22140;48.988;8.544;2023-11-21T15:20:51;8.88;;;4.13;;
23565;SDS011;22140;48.988;8.544;2023-11-21T15:25:53;8.87;;;3.50;;
23565;SDS011;22140;48.988;8.544;2023-11-21T15:30:54;9.93;;;4.35;;
23565;SDS011;22140;48.988;8.544;2023-11-21T15:35:56;9.40;;;4.10;;
23565;SDS011;22140;48.988;8.544;2023-11-21T15:40:59;9.40;;;3.70;;
23565;SDS011;22140;48.988;8.544;2023-11-21T15:46:00;9.90;;;4.55;;
23565;SDS011;22140;48.988;8.544;2023-11-21T15:51:07;10.97;;;4.83;;
23565;SDS011;22140;48.988;8.544;2023-11-21T15:56:13;10.07;;;4.28;;
23565;SDS011;22140;48.988;8.544;2023-11-21T16:01:16;11.50;;;4.28;;
23565;SDS011;22140;48.988;8.544;2023-11-21T16:06:17;13.00;;;5.20;;
23565;SDS011;22140;48.988;8.544;2023-11-21T16:11:19;11.68;;;5.10;;
23565;SDS011;22140;48.988;8.544;2023-11-21T16:16:21;11.33;;;5.47;;
23565;SDS011;22140;48.988;8.544;2023-11-21T16:21:23;14.45;;;6.75;;
23565;SDS011;22140;48.988;8.544;2023-11-21T16:26:24;12.80;;;5.93;;
23565;SDS011;22140;48.988;8.544;2023-11-21T16:31:25;18.73;;;8.33;;
23565;SDS011;22140;48.988;8.544;2023-11-21T16:36:27;18.02;;;8.68;;
23565;SDS011;22140;48.988;8.544;2023-11-21T16:41:28;20.23;;;9.00;;
23565;SDS011;22140;48.988;8.544;2023-11-21T16:46:29;17.65;;;8.57;;
23565;SDS011;22140;48.988;8.544;2023-11-21T16:51:31;17.20;;;8.50;;
23565;SDS011;22140;48.988;8.544;2023-11-21T16:56:33;16.37;;;8.23;;
23565;SDS011;22140;48.988;8.544;2023-11-21T17:01:35;18.08;;;7.68;;
23565;SDS011;22140;48.988;8.544;2023-11-21T17:06:39;11.70;;;5.90;;
23565;SDS011;22140;48.988;8.544;2023-11-21T17:11:41;19.75;;;9.95;;
23565;SDS011;22140;48.988;8.544;2023-11-21T17:16:42;20.35;;;10.10;;
23565;SDS011;22140;48.988;8.544;2023-11-21T17:21:45;18.57;;;10.47;;
23565;SDS011;22140;48.988;8.544;2023-11-21T17:26:47;17.35;;;7.78;;
23565;SDS011;22140;48.988;8.544;2023-11-21T17:31:49;15.63;;;6.97;;
23565;SDS011;22140;48.988;8.544;2023-11-21T17:36:50;16.58;;;8.45;;
23565;SDS011;22140;48.988;8.544;2023-11-21T17:41:52;17.08;;;7.30;;
23565;SDS011;22140;48.988;8.544;2023-11-21T17:46:53;21.97;;;8.23;;
23565;SDS011;22140;48.988;8.544;2023-11-21T17:51:55;18.27;;;8.40;;
23565;SDS011;22140;48.988;8.544;2023-11-21T17:56:56;18.67;;;8.10;;
23565;SDS011;22140;48.988;8.544;2023-11-21T18:01:57;15.07;;;7.28;;
23565;SDS011;22140;48.988;8.544;2023-11-21T18:06:59;17.77;;;8.00;;
23565;SDS011;22140;48.988;8.544;2023-11-21T18:12:00;16.73;;;8.80;;
23565;SDS011;22140;48.988;8.544;2023-11-21T18:17:05;18.55;;;8.65;;
23565;SDS011;22140;48.988;8.544;2023-11-21T18:22:08;19.67;;;8.90;;
23565;SDS011;22140;48.988;8.544;2023-11-21T18:27:09;19.83;;;9.20;;
23565;SDS011;22140;48.988;8.544;2023-11-21T18:32:10;24.77;;;12.30;;
23565;SDS011;22140;48.988;8.544;2023-11-21T18:37:12;23.83;;;12.03;;
23565;SDS011;22140;48.988;8.544;2023-11-21T18:42:14;30.83;;;15.40;;
23565;SDS011;22140;48.988;8.544;2023-11-21T18:47:15;28.90;;;13.13;;
23565;SDS011;22140;48.988;8.544;2023-11-21T18:52:17;27.92;;;11.50;;
23565;SDS011;22140;48.988;8.544;2023-11-21T18:57:18;20.48;;;10.30;;
23565;SDS011;22140;48.988;8.544;2023-11-21T19:02:20;23.53;;;10.23;;
23565;SDS011;22140;48.988;8.544;2023-11-21T19:07:21;24.25;;;11.65;;
23565;SDS011;22140;48.988;8.544;2023-11-21T19:12:24;30.73;;;13.53;;
23565;SDS011;22140;48.988;8.544;2023-11-21T19:17:26;29.63;;;11.80;;
23565;SDS011;22140;48.988;8.544;2023-11-21T19:22:27;30.35;;;13.35;;
23565;SDS011;22140;48.988;8.544;2023-11-21T19:27:28;28.13;;;11.47;;
23565;SDS011;22140;48.988;8.544;2023-11-21T19:32:31;31.40;;;15.52;;
23565;SDS011;22140;48.988;8.544;2023-11-21T19:37:34;33.60;;;15.20;;
23565;SDS011;22140;48.988;8.544;2023-11-21T19:42:36;25.58;;;12.35;;
23565;SDS011;22140;48.988;8.544;2023-11-21T19:47:37;60.63;;;22.65;;
23565;SDS011;22140;48.988;8.544;2023-11-21T19:52:40;17.50;;;8.70;;
23565;SDS011;22140;48.988;8.544;2023-11-21T19:57:42;18.02;;;9.80;;
23565;SDS011;22140;48.988;8.544;2023-11-21T20:02:44;18.93;;;9.03;;
23565;SDS011;22140;48.988;8.544;2023-11-21T20:07:46;17.02;;;7.45;;
23565;SDS011;22140;48.988;8.544;2023-11-21T20:12:47;15.05;;;6.90;;
23565;SDS011;22140;48.988;8.544;2023-11-21T20:17:59;16.70;;;6.33;;
23565;SDS011;22140;48.988;8.544;2023-11-21T20:23:00;18.27;;;6.25;;
23565;SDS011;22140;48.988;8.544;2023-11-21T20:28:01;15.23;;;6.50;;
23565;SDS011;22140;48.988;8.544;2023-11-21T20:33:03;20.15;;;8.75;;
23565;SDS011;22140;48.988;8.544;2023-11-21T20:38:07;21.20;;;8.05;;
23565;SDS011;22140;48.988;8.544;2023-11-21T20:43:09;20.53;;;9.33;;
23565;SDS011;22140;48.988;8.544;2023-11-21T20:48:11;20.67;;;9.45;;
23565;SDS011;22140;48.988;8.544;2023-11-21T20:53:13;17.37;;;7.73;;
23565;SDS011;22140;48.988;8.544;2023-11-21T20:58:14;16.10;;;7.57;;
23565;SDS011;22140;48.988;8.544;2023-11-21T21:03:16;19.50;;;9.00;;
23565;SDS011;22140;48.988;8.544;2023-11-21T21:08:17;28.87;;;13.93;;
23565;SDS011;22140;48.988;8.544;2023-11-21T21:13:19;21.10;;;9.60;;
23565;SDS011;22140;48.988;8.544;2023-11-21T21:18:20;21.13;;;8.90;;
23565;SDS011;22140;48.988;8.544;2023-11-21T21:23:23;20.05;;;8.95;;
23565;SDS011;22140;48.988;8.544;2023-11-21T21:28:24;22.35;;;9.25;;
23565;SDS011;22140;48.988;8.544;2023-11-21T21:33:25;18.57;;;7.90;;
23565;SDS011;22140;48.988;8.544;2023-11-21T21:38:27;18.55;;;8.25;;
23565;SDS011;22140;48.988;8.544;2023-11-21T21:43:31;19.03;;;8.10;;
23565;SDS011;22140;48.988;8.544;2023-11-21T21:48:34;21.73;;;8.20;;
23565;SDS011;22140;48.988;8.544;2023-11-21T21:53:38;19.08;;;8.68;;
23565;SDS011;22140;48.988;8.544;2023-11-21T21:58:42;18.50;;;8.67;;
23565;SDS011;22140;48.988;8.544;2023-11-21T22:03:44;17.67;;;7.60;;
23565;SDS011;22140;48.988;8.544;2023-11-21T22:08:45;20.03;;;8.67;;
23565;SDS011;22140;48.988;8.544;2023-11-21T22:13:47;21.63;;;8.55;;
23565;SDS011;22140;48.988;8.544;2023-11-21T22:18:49;20.38;;;8.20;;
23565;SDS011;22140;48.988;8.544;2023-11-21T22:23:50;19.40;;;8.53;;
23565;SDS011;22140;48.988;8.544;2023-11-21T22:28:54;18.92;;;8.20;;
23565;SDS011;22140;48.988;8.544;2023-11-21T22:33:55;17.10;;;7.70;;
23565;SDS011;22140;48.988;8.544;2023-11-21T22:38:57;19.05;;;8.02;;
23565;SDS011;22140;48.988;8.544;2023-11-21T22:43:58;17.92;;;8.35;;
23565;SDS011;22140;48.988;8.544;2023-11-21T22:49:00;29.73;;;10.83;;
23565;SDS011;22140;48.988;8.544;2023-11-21T22:54:01;26.05;;;10.65;;
23565;SDS011;22140;48.988;8.544;2023-11-21T22:59:03;24.40;;;9.83;;
23565;SDS011;22140;48.988;8.544;2023-11-21T23:04:05;23.92;;;11.23;;
23565;SDS011;22140;48.988;8.544;2023-11-21T23:09:07;20.30;;;8.68;;
23565;SDS011;22140;48.988;8.544;2023-11-21T23:14:09;25.03;;;9.23;;
23565;SDS011;22140;48.988;8.544;2023-11-21T23:19:11;20.75;;;8.30;;
23565;SDS011;22140;48.988;8.544;2023-11-21T23:24:16;17.80;;;7.60;;
23565;SDS011;22140;48.988;8.544;2023-11-21T23:29:21;19.50;;;9.13;;
23565;SDS011;22140;48.988;8.544;2023-11-21T23:34:24;14.20;;;6.88;;
23565;SDS011;22140;48.988;8.544;2023-11-21T23:39:25;10.43;;;4.83;;
23565;SDS011;22140;48.988;8.544;2023-11-21T23:44:27;10.77;;;4.28;;
23565;SDS011;22140;48.988;8.544;2023-11-21T23:49:29;8.87;;;3.50;;
23565;SDS011;22140;48.988;8.544;2023-11-21T23:54:31;8.20;;;3.35;;
23565;SDS011;22140;48.988;8.544;2023-11-21T23:59:32;8.10;;;3.47;;
